sensor_id;sensor_type;location;lat;lon;timestamp;P1;durP1;ratioP1;P2;durP2;ratioP2
51448;SDS011;37520;46.570;14.268;2022-07-12T00:07:17;2.80;;;1.00;;
51448;SDS011;37520;46.570;14.268;2022-07-12T00:17:18;2.08;;;0.90;;
51448;SDS011;37520;46.570;14.268;2022-07-12T00:27:20;3.13;;;1.20;;
51448;SDS011;37520;46.570;14.268;2022-07-12T00:37:21;2.63;;;1.08;;
51448;SDS011;37520;46.570;14.268;2022-07-12T00:47:28;3.72;;;1.20;;
51448;SDS011;37520;46.570;14.268;2022-07-12T00:57:38;3.28;;;1.20;;
51448;SDS011;37520;46.570;14.268;2022-07-12T01:07:40;2.83;;;1.30;;
51448;SDS011;37520;46.570;14.268;2022-07-12T01:17:43;3.35;;;1.35;;
51448;SDS011;37520;46.570;14.268;2022-07-12T01:27:46;2.65;;;1.20;;
51448;SDS011;37520;46.570;14.268;2022-07-12T01:37:48;2.45;;;1.02;;
51448;SDS011;37520;46.570;14.268;2022-07-12T01:47:50;2.67;;;1.30;;
51448;SDS011;37520;46.570;14.268;2022-07-12T01:57:51;2.67;;;1.13;;
51448;SDS011;37520;46.570;14.268;2022-07-12T02:07:52;2.85;;;1.05;;
51448;SDS011;37520;46.570;14.268;2022-07-12T02:17:55;2.67;;;1.17;;
51448;SDS011;37520;46.570;14.268;2022-07-12T02:27:56;3.50;;;1.10;;
51448;SDS011;37520;46.570;14.268;2022-07-12T02:37:57;2.47;;;0.95;;
51448;SDS011;37520;46.570;14.268;2022-07-12T02:47:59;2.22;;;1.10;;
51448;SDS011;37520;46.570;14.268;2022-07-12T02:58:00;2.65;;;1.20;;
51448;SDS011;37520;46.570;14.268;2022-07-12T03:08:02;3.05;;;1.30;;
51448;SDS011;37520;46.570;14.268;2022-07-12T03:18:04;2.63;;;1.33;;
51448;SDS011;37520;46.570;14.268;2022-07-12T03:28:05;3.60;;;1.20;;
51448;SDS011;37520;46.570;14.268;2022-07-12T03:38:07;7.45;;;1.10;;
51448;SDS011;37520;46.570;14.268;2022-07-12T03:48:08;3.75;;;1.23;;
51448;SDS011;37520;46.570;14.268;2022-07-12T03:58:09;2.40;;;1.10;;
51448;SDS011;37520;46.570;14.268;2022-07-12T04:08:11;5.03;;;1.13;;
51448;SDS011;37520;46.570;14.268;2022-07-12T04:18:12;2.45;;;1.00;;
51448;SDS011;37520;46.570;14.268;2022-07-12T04:28:13;4.35;;;1.45;;
51448;SDS011;37520;46.570;14.268;2022-07-12T04:38:14;3.08;;;1.10;;
51448;SDS011;37520;46.570;14.268;2022-07-12T04:48:15;3.08;;;1.00;;
51448;SDS011;37520;46.570;14.268;2022-07-12T04:58:17;2.65;;;1.27;;
51448;SDS011;37520;46.570;14.268;2022-07-12T05:08:18;2.55;;;1.20;;
51448;SDS011;37520;46.570;14.268;2022-07-12T05:18:20;2.70;;;1.17;;
51448;SDS011;37520;46.570;14.268;2022-07-12T05:28:21;2.78;;;1.23;;
51448;SDS011;37520;46.570;14.268;2022-07-12T05:38:22;2.40;;;1.10;;
51448;SDS011;37520;46.570;14.268;2022-07-12T05:48:24;4.43;;;1.20;;
51448;SDS011;37520;46.570;14.268;2022-07-12T05:58:25;3.75;;;1.20;;
51448;SDS011;37520;46.570;14.268;2022-07-12T06:08:26;3.20;;;0.93;;
51448;SDS011;37520;46.570;14.268;2022-07-12T06:18:28;3.03;;;1.00;;
51448;SDS011;37520;46.570;14.268;2022-07-12T06:28:30;2.22;;;1.00;;
51448;SDS011;37520;46.570;14.268;2022-07-12T06:38:31;2.45;;;1.05;;
51448;SDS011;37520;46.570;14.268;2022-07-12T06:48:32;4.35;;;1.13;;
51448;SDS011;37520;46.570;14.268;2022-07-12T06:58:34;2.50;;;0.82;;
51448;SDS011;37520;46.570;14.268;2022-07-12T07:08:35;3.53;;;1.00;;
51448;SDS011;37520;46.570;14.268;2022-07-12T07:18:36;2.55;;;0.90;;
51448;SDS011;37520;46.570;14.268;2022-07-12T07:28:39;2.33;;;0.90;;
51448;SDS011;37520;46.570;14.268;2022-07-12T07:38:59;1.77;;;0.88;;
51448;SDS011;37520;46.570;14.268;2022-07-12T07:49:01;2.45;;;0.90;;
51448;SDS011;37520;46.570;14.268;2022-07-12T07:59:03;2.20;;;0.85;;
51448;SDS011;37520;46.570;14.268;2022-07-12T08:09:10;2.77;;;0.73;;
51448;SDS011;37520;46.570;14.268;2022-07-12T08:19:12;2.03;;;0.93;;
51448;SDS011;37520;46.570;14.268;2022-07-12T08:29:18;2.10;;;0.93;;
51448;SDS011;37520;46.570;14.268;2022-07-12T08:39:19;2.20;;;0.70;;
51448;SDS011;37520;46.570;14.268;2022-07-12T08:49:20;2.70;;;0.80;;
51448;SDS011;37520;46.570;14.268;2022-07-12T08:59:23;2.33;;;0.77;;
51448;SDS011;37520;46.570;14.268;2022-07-12T09:09:28;1.60;;;0.65;;
51448;SDS011;37520;46.570;14.268;2022-07-12T09:19:31;3.00;;;0.60;;
51448;SDS011;37520;46.570;14.268;2022-07-12T09:29:34;2.90;;;0.70;;
51448;SDS011;37520;46.570;14.268;2022-07-12T09:39:47;1.17;;;0.40;;
51448;SDS011;37520;46.570;14.268;2022-07-12T09:49:49;2.08;;;0.65;;
51448;SDS011;37520;46.570;14.268;2022-07-12T09:59:53;4.75;;;0.75;;
51448;SDS011;37520;46.570;14.268;2022-07-12T10:09:55;3.25;;;0.60;;
51448;SDS011;37520;46.570;14.268;2022-07-12T10:20:14;1.67;;;0.60;;
51448;SDS011;37520;46.570;14.268;2022-07-12T10:30:20;0.82;;;0.43;;
51448;SDS011;37520;46.570;14.268;2022-07-12T10:40:23;0.68;;;0.35;;
51448;SDS011;37520;46.570;14.268;2022-07-12T11:00:46;1.60;;;0.50;;
51448;SDS011;37520;46.570;14.268;2022-07-12T11:10:55;1.35;;;0.60;;
51448;SDS011;37520;46.570;14.268;2022-07-12T11:20:58;0.73;;;0.40;;
51448;SDS011;37520;46.570;14.268;2022-07-12T11:31:11;1.23;;;0.50;;
51448;SDS011;37520;46.570;14.268;2022-07-12T11:41:16;1.52;;;0.50;;
51448;SDS011;37520;46.570;14.268;2022-07-12T11:51:17;2.80;;;0.60;;
51448;SDS011;37520;46.570;14.268;2022-07-12T12:01:20;1.17;;;0.40;;
51448;SDS011;37520;46.570;14.268;2022-07-12T12:11:26;0.88;;;0.30;;
51448;SDS011;37520;46.570;14.268;2022-07-12T12:33:47;1.35;;;0.50;;
51448;SDS011;37520;46.570;14.268;2022-07-12T12:44:02;1.15;;;0.40;;
51448;SDS011;37520;46.570;14.268;2022-07-12T12:54:05;1.42;;;0.40;;
51448;SDS011;37520;46.570;14.268;2022-07-12T13:04:09;1.23;;;0.47;;
51448;SDS011;37520;46.570;14.268;2022-07-12T13:14:10;3.90;;;0.60;;
51448;SDS011;37520;46.570;14.268;2022-07-12T13:24:12;1.13;;;0.40;;
51448;SDS011;37520;46.570;14.268;2022-07-12T13:34:13;1.10;;;0.40;;
51448;SDS011;37520;46.570;14.268;2022-07-12T13:44:14;1.42;;;0.40;;
51448;SDS011;37520;46.570;14.268;2022-07-12T13:54:15;1.05;;;0.50;;
51448;SDS011;37520;46.570;14.268;2022-07-12T14:04:16;1.90;;;0.40;;
51448;SDS011;37520;46.570;14.268;2022-07-12T14:14:18;0.70;;;0.30;;
51448;SDS011;37520;46.570;14.268;2022-07-12T14:24:39;1.20;;;0.30;;
51448;SDS011;37520;46.570;14.268;2022-07-12T14:34:40;1.17;;;0.43;;
51448;SDS011;37520;46.570;14.268;2022-07-12T14:44:41;0.90;;;0.40;;
51448;SDS011;37520;46.570;14.268;2022-07-12T14:54:43;1.60;;;0.60;;
51448;SDS011;37520;46.570;14.268;2022-07-12T15:04:45;1.83;;;0.60;;
51448;SDS011;37520;46.570;14.268;2022-07-12T15:14:46;1.92;;;0.60;;
51448;SDS011;37520;46.570;14.268;2022-07-12T15:25:05;3.40;;;0.70;;
51448;SDS011;37520;46.570;14.268;2022-07-12T15:35:07;0.98;;;0.50;;
51448;SDS011;37520;46.570;14.268;2022-07-12T15:45:09;0.98;;;0.47;;
51448;SDS011;37520;46.570;14.268;2022-07-12T15:55:13;1.30;;;0.50;;
51448;SDS011;37520;46.570;14.268;2022-07-12T16:05:14;1.55;;;0.60;;
51448;SDS011;37520;46.570;14.268;2022-07-12T16:15:15;1.08;;;0.50;;
51448;SDS011;37520;46.570;14.268;2022-07-12T16:25:17;1.10;;;0.40;;
51448;SDS011;37520;46.570;14.268;2022-07-12T16:35:18;1.95;;;0.73;;
51448;SDS011;37520;46.570;14.268;2022-07-12T16:45:20;2.45;;;0.55;;
51448;SDS011;37520;46.570;14.268;2022-07-12T16:55:22;3.15;;;0.52;;
51448;SDS011;37520;46.570;14.268;2022-07-12T17:05:23;1.50;;;0.57;;
51448;SDS011;37520;46.570;14.268;2022-07-12T17:15:24;1.30;;;0.50;;
51448;SDS011;37520;46.570;14.268;2022-07-12T17:25:26;1.95;;;0.63;;
51448;SDS011;37520;46.570;14.268;2022-07-12T17:35:28;1.75;;;0.68;;
51448;SDS011;37520;46.570;14.268;2022-07-12T17:45:30;2.20;;;0.80;;
51448;SDS011;37520;46.570;14.268;2022-07-12T17:55:32;2.80;;;0.90;;
51448;SDS011;37520;46.570;14.268;2022-07-12T18:05:33;1.90;;;0.80;;
51448;SDS011;37520;46.570;14.268;2022-07-12T18:15:34;2.80;;;1.00;;
51448;SDS011;37520;46.570;14.268;2022-07-12T18:25:36;2.55;;;0.75;;
51448;SDS011;37520;46.570;14.268;2022-07-12T18:35:37;2.25;;;0.70;;
51448;SDS011;37520;46.570;14.268;2022-07-12T18:45:39;3.22;;;0.95;;
51448;SDS011;37520;46.570;14.268;2022-07-12T18:55:41;2.53;;;0.88;;
51448;SDS011;37520;46.570;14.268;2022-07-12T19:05:42;2.85;;;0.70;;
51448;SDS011;37520;46.570;14.268;2022-07-12T19:15:43;3.08;;;0.80;;
51448;SDS011;37520;46.570;14.268;2022-07-12T19:25:45;2.30;;;0.90;;
51448;SDS011;37520;46.570;14.268;2022-07-12T19:35:46;1.77;;;0.70;;
51448;SDS011;37520;46.570;14.268;2022-07-12T19:45:47;3.20;;;0.90;;
51448;SDS011;37520;46.570;14.268;2022-07-12T19:55:50;2.25;;;0.90;;
51448;SDS011;37520;46.570;14.268;2022-07-12T20:05:51;6.85;;;1.33;;
51448;SDS011;37520;46.570;14.268;2022-07-12T20:15:53;2.65;;;1.10;;
51448;SDS011;37520;46.570;14.268;2022-07-12T20:25:54;3.08;;;1.23;;
51448;SDS011;37520;46.570;14.268;2022-07-12T20:35:55;3.33;;;1.00;;
51448;SDS011;37520;46.570;14.268;2022-07-12T20:45:56;3.78;;;0.85;;
51448;SDS011;37520;46.570;14.268;2022-07-12T20:55:57;2.90;;;1.00;;
51448;SDS011;37520;46.570;14.268;2022-07-12T21:05:59;3.58;;;1.20;;
51448;SDS011;37520;46.570;14.268;2022-07-12T21:16:01;4.30;;;1.30;;
51448;SDS011;37520;46.570;14.268;2022-07-12T21:26:03;2.40;;;1.25;;
51448;SDS011;37520;46.570;14.268;2022-07-12T21:36:05;2.90;;;1.17;;
51448;SDS011;37520;46.570;14.268;2022-07-12T21:46:06;3.30;;;1.00;;
51448;SDS011;37520;46.570;14.268;2022-07-12T21:56:08;2.67;;;1.05;;
51448;SDS011;37520;46.570;14.268;2022-07-12T22:06:09;2.75;;;1.10;;
51448;SDS011;37520;46.570;14.268;2022-07-12T22:16:10;2.72;;;1.05;;
51448;SDS011;37520;46.570;14.268;2022-07-12T22:26:12;3.55;;;1.20;;
51448;SDS011;37520;46.570;14.268;2022-07-12T22:36:14;3.17;;;1.10;;
51448;SDS011;37520;46.570;14.268;2022-07-12T22:46:16;2.08;;;1.05;;
51448;SDS011;37520;46.570;14.268;2022-07-12T22:56:17;3.08;;;1.20;;
51448;SDS011;37520;46.570;14.268;2022-07-12T23:06:18;2.70;;;1.20;;
51448;SDS011;37520;46.570;14.268;2022-07-12T23:16:21;2.67;;;1.15;;
51448;SDS011;37520;46.570;14.268;2022-07-12T23:26:22;3.10;;;1.33;;
51448;SDS011;37520;46.570;14.268;2022-07-12T23:36:24;2.25;;;1.05;;
51448;SDS011;37520;46.570;14.268;2022-07-12T23:46:25;2.63;;;1.40;;
51448;SDS011;37520;46.570;14.268;2022-07-12T23:56:26;3.03;;;1.20;;
